createdAt,value
2023-04-07T00:01:00.693Z,5.10
2023-04-07T00:03:28.366Z,6.72
2023-04-07T00:05:56.068Z,6.10
2023-04-07T00:08:23.193Z,4.97
2023-04-07T00:10:50.438Z,4.95
2023-04-07T00:13:17.758Z,3.97
2023-04-07T00:15:45.036Z,5.05
2023-04-07T00:18:12.391Z,4.75
2023-04-07T00:20:40.098Z,6.15
2023-04-07T00:23:07.277Z,4.57
2023-04-07T00:25:34.470Z,3.72
2023-04-07T00:28:01.779Z,5.38
2023-04-07T00:30:29.130Z,2.65
2023-04-07T00:32:57.011Z,7.32
2023-04-07T00:35:24.381Z,5.35
2023-04-07T00:37:51.629Z,3.10
2023-04-07T00:40:18.916Z,8.18
2023-04-07T00:42:46.500Z,4.32
2023-04-07T00:45:13.877Z,7.85
2023-04-07T00:47:41.733Z,3.65
2023-04-07T00:50:09.573Z,8.50
2023-04-07T00:52:38.242Z,5.68
2023-04-07T00:55:06.290Z,3.72
2023-04-07T00:57:33.729Z,5.38
2023-04-07T01:00:01.182Z,3.72
2023-04-07T01:02:43.250Z,2.17
2023-04-07T01:05:21.051Z,4.75
2023-04-07T01:08:18.265Z,4.10
2023-04-07T01:10:49.934Z,4.00
2023-04-07T01:13:22.205Z,3.50
2023-04-07T01:15:56.466Z,3.60
2023-04-07T01:18:33.679Z,5.50
2023-04-07T01:21:06.569Z,4.68
2023-04-07T01:24:01.333Z,4.60
2023-04-07T01:26:31.402Z,3.95
2023-04-07T01:29:21.475Z,8.40
2023-04-07T01:31:50.804Z,6.28
2023-04-07T01:34:19.821Z,5.85
2023-04-07T01:36:48.356Z,5.38
2023-04-07T01:39:16.575Z,3.83
2023-04-07T01:41:45.724Z,8.18
2023-04-07T01:44:14.832Z,4.30
2023-04-07T01:46:42.350Z,2.80
2023-04-07T01:49:12.011Z,3.58
2023-04-07T01:51:40.835Z,6.65
2023-04-07T01:54:09.181Z,3.83
2023-04-07T01:56:36.620Z,3.70
2023-04-07T01:59:06.825Z,9.30
2023-04-07T02:01:34.924Z,5.22
2023-04-07T02:04:09.724Z,5.28
2023-04-07T02:06:50.412Z,2.97
2023-04-07T02:09:22.947Z,4.72
2023-04-07T02:11:52.929Z,9.05
2023-04-07T02:14:22.815Z,4.28
2023-04-07T02:17:16.945Z,4.55
2023-04-07T02:19:47.922Z,7.05
2023-04-07T02:22:16.673Z,4.35
2023-04-07T02:24:43.943Z,5.65
2023-04-07T02:27:11.520Z,4.63
2023-04-07T02:29:38.911Z,3.70
2023-04-07T02:32:06.683Z,4.47
2023-04-07T02:34:33.956Z,5.38
2023-04-07T02:37:01.419Z,6.43
2023-04-07T02:39:28.734Z,4.85
2023-04-07T02:41:56.156Z,6.97
2023-04-07T02:44:23.333Z,13.40
2023-04-07T02:46:50.618Z,4.90
2023-04-07T02:49:17.968Z,4.32
2023-04-07T02:51:47.129Z,3.75
2023-04-07T02:54:14.386Z,8.02
2023-04-07T02:56:42.411Z,5.32
2023-04-07T02:59:09.828Z,4.88
2023-04-07T03:01:41.650Z,4.47
2023-04-07T03:04:09.346Z,5.55
2023-04-07T03:06:36.758Z,4.43
2023-04-07T03:09:09.671Z,6.65
2023-04-07T03:11:37.684Z,4.88
2023-04-07T03:14:05.166Z,5.80
2023-04-07T03:16:34.108Z,6.25
2023-04-07T03:21:40.575Z,5.78
2023-04-07T03:24:09.105Z,3.63
2023-04-07T03:26:36.419Z,7.68
2023-04-07T03:29:07.271Z,5.10
2023-04-07T03:31:34.353Z,5.28
2023-04-07T03:34:01.616Z,4.82
2023-04-07T03:36:29.268Z,4.22
2023-04-07T03:39:00.487Z,7.28
2023-04-07T03:41:28.558Z,6.10
2023-04-07T03:43:55.802Z,6.05
2023-04-07T03:46:27.077Z,8.50
2023-04-07T03:48:54.774Z,7.72
2023-04-07T03:51:22.852Z,6.85
2023-04-07T03:53:56.109Z,8.20
2023-04-07T03:56:32.070Z,8.38
2023-04-07T03:58:59.996Z,5.85
2023-04-07T04:01:32.012Z,10.10
2023-04-07T04:04:06.887Z,5.40
2023-04-07T04:06:35.526Z,5.90
2023-04-07T04:09:17.984Z,3.47
2023-04-07T04:11:48.404Z,6.03
2023-04-07T04:14:16.795Z,7.80
2023-04-07T04:16:50.549Z,6.85
2023-04-07T04:19:41.353Z,4.47
2023-04-07T04:22:26.213Z,7.55
2023-04-07T04:24:57.116Z,7.65
2023-04-07T04:27:26.622Z,6.15
2023-04-07T04:30:01.222Z,6.47
2023-04-07T04:32:37.033Z,7.47
2023-04-07T04:35:06.572Z,6.63
2023-04-07T04:37:39.196Z,5.28
2023-04-07T04:40:11.852Z,11.98
2023-04-07T04:42:41.103Z,5.35
2023-04-07T04:45:10.822Z,7.88
2023-04-07T04:47:43.336Z,9.73
2023-04-07T04:50:11.359Z,9.20
2023-04-07T04:52:40.709Z,8.95
2023-04-07T04:55:14.609Z,8.55
2023-04-07T04:57:43.583Z,5.80
2023-04-07T05:00:14.395Z,6.93
2023-04-07T05:02:43.902Z,8.05
2023-04-07T05:05:11.927Z,5.93
2023-04-07T05:07:40.741Z,9.13
2023-04-07T05:10:10.657Z,10.57
2023-04-07T05:12:44.641Z,8.00
2023-04-07T05:15:12.064Z,8.15
2023-04-07T05:17:39.412Z,7.07
2023-04-07T05:20:10.219Z,8.57
2023-04-07T05:22:40.490Z,9.40
2023-04-07T05:25:11.760Z,10.68
2023-04-07T05:27:41.261Z,9.32
2023-04-07T05:30:14.445Z,15.57
2023-04-07T05:32:41.717Z,8.55
2023-04-07T05:35:18.066Z,7.60
2023-04-07T05:37:51.975Z,5.68
2023-04-07T05:40:19.489Z,5.32
2023-04-07T05:42:47.679Z,9.35
2023-04-07T05:45:15.071Z,6.00
2023-04-07T05:47:50.081Z,7.80
2023-04-07T05:50:22.713Z,10.98
2023-04-07T05:52:51.074Z,7.43
2023-04-07T05:55:27.848Z,7.05
2023-04-07T05:57:55.816Z,10.35
2023-04-07T06:00:26.431Z,6.18
2023-04-07T06:03:04.072Z,11.48
2023-04-07T06:05:43.734Z,7.75
2023-04-07T06:08:12.578Z,8.45
2023-04-07T06:10:41.970Z,9.68
2023-04-07T06:13:09.123Z,5.72
2023-04-07T06:15:36.324Z,6.88
2023-04-07T06:18:04.072Z,7.57
2023-04-07T06:20:31.374Z,11.45
2023-04-07T06:22:58.827Z,9.38
2023-04-07T06:25:27.363Z,9.18
2023-04-07T06:27:55.201Z,9.85
2023-04-07T06:30:23.548Z,7.68
2023-04-07T06:32:51.345Z,9.80
2023-04-07T06:35:18.530Z,8.35
2023-04-07T06:37:45.807Z,7.38
2023-04-07T06:40:13.317Z,6.45
2023-04-07T06:42:40.608Z,12.05
2023-04-07T06:45:17.574Z,8.38
2023-04-07T06:47:44.763Z,8.05
2023-04-07T06:50:12.123Z,16.52
2023-04-07T06:52:39.706Z,5.38
2023-04-07T06:55:08.076Z,9.32
2023-04-07T06:57:35.536Z,6.97
2023-04-07T07:00:02.953Z,8.80
2023-04-07T07:02:31.144Z,6.72
2023-04-07T07:04:58.337Z,12.18
2023-04-07T07:07:26.153Z,10.25
2023-04-07T07:09:54.340Z,7.70
2023-04-07T07:12:21.498Z,5.78
2023-04-07T07:14:48.661Z,4.30
2023-04-07T07:17:16.543Z,7.93
2023-04-07T07:19:43.658Z,7.82
2023-04-07T07:22:11.701Z,7.55
2023-04-07T07:24:39.055Z,8.02
2023-04-07T07:27:06.406Z,11.13
2023-04-07T07:29:33.472Z,4.57
2023-04-07T07:32:00.767Z,7.30
2023-04-07T07:34:27.994Z,9.20
2023-04-07T07:36:55.108Z,7.30
2023-04-07T07:39:22.462Z,8.80
2023-04-07T07:41:51.779Z,3.10
2023-04-07T07:44:25.124Z,3.72
2023-04-07T07:46:52.352Z,3.30
2023-04-07T07:49:19.637Z,6.72
2023-04-07T07:51:47.301Z,5.72
2023-04-07T07:54:14.602Z,10.32
2023-04-07T07:56:41.860Z,4.40
2023-04-07T07:59:08.963Z,2.90
2023-04-07T08:01:36.460Z,6.03
2023-04-07T08:04:04.029Z,3.78
2023-04-07T08:06:31.713Z,7.15
2023-04-07T08:08:59.007Z,6.85
2023-04-07T08:11:26.175Z,5.20
2023-04-07T08:13:54.131Z,6.95
2023-04-07T08:16:22.561Z,2.70
2023-04-07T08:18:50.113Z,2.72
2023-04-07T08:21:17.492Z,4.35
2023-04-07T08:23:44.828Z,2.80
2023-04-07T08:26:12.240Z,3.03
2023-04-07T08:28:39.708Z,3.95
2023-04-07T08:31:07.645Z,2.90
2023-04-07T08:33:48.402Z,3.72
2023-04-07T08:36:16.169Z,2.88
2023-04-07T08:38:43.528Z,4.80
2023-04-07T08:41:13.514Z,2.85
2023-04-07T08:43:43.690Z,2.25
2023-04-07T08:46:11.616Z,6.93
2023-04-07T08:48:40.363Z,2.88
2023-04-07T08:51:10.433Z,3.25
2023-04-07T08:53:50.687Z,2.38
2023-04-07T08:56:19.096Z,3.67
2023-04-07T08:58:48.549Z,1.60
2023-04-07T09:01:17.122Z,3.08
2023-04-07T09:03:46.679Z,2.63
2023-04-07T09:06:14.706Z,4.78
2023-04-07T09:08:42.023Z,3.97
2023-04-07T09:11:09.322Z,1.88
2023-04-07T09:13:38.503Z,4.57
2023-04-07T09:16:05.721Z,2.63
2023-04-07T09:18:33.653Z,3.05
2023-04-07T09:21:03.443Z,2.50
2023-04-07T09:23:33.081Z,4.93
2023-04-07T09:26:21.701Z,2.85
2023-04-07T09:29:01.059Z,6.93
2023-04-07T09:31:55.583Z,2.83
2023-04-07T09:34:29.337Z,2.70
2023-04-07T09:36:57.644Z,1.83
2023-04-07T09:39:25.864Z,6.28
2023-04-07T09:41:53.586Z,3.30
2023-04-07T09:44:21.972Z,3.72
2023-04-07T09:47:07.492Z,3.33
2023-04-07T09:49:49.470Z,2.42
2023-04-07T09:52:17.775Z,5.47
2023-04-07T09:54:48.232Z,2.90
2023-04-07T09:57:17.527Z,2.10
2023-04-07T09:59:48.522Z,4.45
2023-04-07T10:02:16.338Z,4.65
2023-04-07T10:04:44.058Z,6.78
2023-04-07T10:07:11.316Z,2.20
2023-04-07T10:09:38.830Z,2.78
2023-04-07T10:12:07.243Z,3.28
2023-04-07T10:14:37.150Z,4.00
2023-04-07T10:17:05.780Z,3.05
2023-04-07T10:19:34.799Z,1.20
2023-04-07T10:22:05.587Z,2.97
2023-04-07T10:24:54.951Z,3.08
2023-04-07T10:27:31.509Z,1.67
2023-04-07T10:30:00.495Z,2.08
2023-04-07T10:32:27.699Z,5.25
2023-04-07T10:34:54.933Z,2.88
2023-04-07T10:37:23.897Z,2.85
2023-04-07T10:40:28.054Z,2.13
2023-04-07T10:42:59.030Z,3.22
2023-04-07T10:45:54.515Z,7.82
2023-04-07T10:48:22.961Z,3.92
2023-04-07T10:51:24.902Z,2.75
2023-04-07T10:54:26.810Z,5.65
2023-04-07T10:57:04.442Z,2.75
2023-04-07T10:59:33.336Z,4.47
2023-04-07T11:02:12.748Z,2.88
2023-04-07T11:04:47.228Z,5.65
2023-04-07T11:07:16.603Z,2.70
2023-04-07T11:09:44.259Z,2.33
2023-04-07T11:12:31.281Z,2.38
2023-04-07T11:15:02.918Z,3.35
2023-04-07T11:17:30.823Z,1.67
2023-04-07T11:19:58.927Z,3.88
2023-04-07T11:22:30.376Z,2.63
2023-04-07T11:24:57.870Z,5.70
2023-04-07T11:27:25.749Z,2.47
2023-04-07T11:29:53.434Z,5.10
2023-04-07T11:32:30.018Z,5.57
2023-04-07T11:34:57.825Z,2.50
2023-04-07T11:37:27.454Z,4.95
2023-04-07T11:39:59.349Z,4.43
2023-04-07T11:42:37.872Z,5.72
2023-04-07T11:45:08.152Z,6.30
2023-04-07T11:47:37.133Z,3.55
2023-04-07T11:50:04.782Z,5.90
2023-04-07T11:52:50.309Z,8.95
2023-04-07T11:55:22.921Z,3.22
2023-04-07T11:57:54.202Z,4.10
2023-04-07T12:00:21.758Z,5.50
2023-04-07T12:02:51.664Z,3.15
2023-04-07T12:05:19.295Z,3.95
2023-04-07T12:07:56.438Z,4.35
2023-04-07T12:10:28.442Z,3.95
2023-04-07T12:12:58.147Z,6.07
2023-04-07T12:15:27.278Z,4.40
2023-04-07T12:17:55.760Z,6.55
2023-04-07T12:20:23.004Z,9.70
2023-04-07T12:22:50.324Z,5.57
2023-04-07T12:25:17.449Z,5.28
2023-04-07T12:27:44.678Z,5.20
2023-04-07T12:30:13.322Z,1.67
2023-04-07T12:32:40.769Z,4.22
2023-04-07T12:35:08.352Z,4.60
2023-04-07T12:37:35.906Z,4.95
2023-04-07T12:40:03.521Z,5.20
2023-04-07T12:42:30.984Z,4.75
2023-04-07T12:44:58.114Z,3.08
2023-04-07T12:47:25.631Z,2.30
2023-04-07T12:49:52.837Z,7.97
2023-04-07T12:52:20.146Z,5.10
2023-04-07T12:54:47.299Z,9.15
2023-04-07T12:57:14.390Z,4.00
2023-04-07T12:59:41.549Z,4.00
2023-04-07T13:02:08.993Z,5.30
2023-04-07T13:04:37.200Z,7.05
2023-04-07T13:07:04.445Z,4.10
2023-04-07T13:09:31.676Z,3.58
2023-04-07T13:11:58.793Z,2.25
2023-04-07T13:14:26.347Z,1.85
2023-04-07T13:16:53.857Z,4.75
2023-04-07T13:19:24.076Z,4.65
2023-04-07T13:21:51.457Z,3.45
2023-04-07T13:24:18.995Z,6.35
2023-04-07T13:26:46.527Z,4.78
2023-04-07T13:29:13.964Z,4.10
2023-04-07T13:31:41.265Z,6.10
2023-04-07T13:34:08.709Z,5.28
2023-04-07T13:36:35.880Z,3.63
2023-04-07T13:39:03.312Z,6.93
2023-04-07T13:41:30.760Z,3.63
2023-04-07T13:43:58.684Z,6.30
2023-04-07T13:46:28.930Z,5.25
2023-04-07T13:48:58.179Z,4.00
2023-04-07T13:51:25.554Z,5.15
2023-04-07T13:53:53.028Z,3.40
2023-04-07T13:56:20.371Z,2.55
2023-04-07T13:58:48.122Z,5.03
2023-04-07T14:01:15.596Z,5.45
2023-04-07T14:03:43.198Z,5.97
2023-04-07T14:06:10.586Z,2.78
2023-04-07T14:08:37.962Z,3.83
2023-04-07T14:11:05.635Z,4.88
2023-04-07T14:13:32.904Z,6.15
2023-04-07T14:16:00.401Z,3.78
2023-04-07T14:18:28.224Z,3.78
2023-04-07T14:20:55.638Z,3.00
2023-04-07T14:23:36.114Z,4.18
2023-04-07T14:26:04.607Z,4.97
2023-04-07T14:28:32.136Z,3.83
2023-04-07T14:30:59.300Z,3.47
2023-04-07T14:33:26.819Z,4.82
2023-04-07T14:35:54.698Z,4.00
2023-04-07T14:38:24.531Z,2.78
2023-04-07T14:40:52.817Z,7.13
2023-04-07T14:43:20.261Z,3.85
2023-04-07T14:45:47.485Z,6.10
2023-04-07T14:48:14.904Z,4.22
2023-04-07T14:50:42.135Z,3.97
2023-04-07T14:53:09.408Z,3.97
2023-04-07T14:55:37.227Z,5.45
2023-04-07T14:58:04.695Z,5.57
2023-04-07T15:00:31.783Z,5.57
2023-04-07T15:02:59.322Z,3.75
2023-04-07T15:05:28.870Z,2.97
2023-04-07T15:07:56.165Z,7.90
2023-04-07T15:10:23.351Z,7.95
2023-04-07T15:12:50.835Z,5.80
2023-04-07T15:15:18.706Z,6.22
2023-04-07T15:17:46.068Z,4.85
2023-04-07T15:20:13.638Z,4.32
2023-04-07T15:22:41.028Z,10.70
2023-04-07T15:25:08.961Z,3.65
2023-04-07T15:27:36.210Z,11.27
2023-04-07T15:30:04.012Z,6.22
2023-04-07T15:32:32.250Z,9.05
2023-04-07T15:34:59.388Z,3.28
2023-04-07T15:37:26.688Z,8.50
2023-04-07T15:39:53.836Z,8.13
2023-04-07T15:42:21.027Z,6.82
2023-04-07T15:44:48.364Z,6.78
2023-04-07T15:47:15.849Z,12.77
2023-04-07T15:49:42.859Z,14.02
2023-04-07T15:52:12.126Z,5.28
2023-04-07T15:54:39.384Z,4.88
2023-04-07T15:57:06.857Z,4.75
2023-04-07T15:59:36.160Z,6.18
2023-04-07T16:02:03.882Z,3.30
2023-04-07T16:04:31.372Z,8.30
2023-04-07T16:06:58.774Z,11.55
2023-04-07T16:09:26.325Z,8.00
2023-04-07T16:11:53.779Z,11.13
2023-04-07T16:14:20.992Z,7.00
2023-04-07T16:16:48.174Z,6.80
2023-04-07T16:19:15.543Z,7.43
2023-04-07T16:21:42.896Z,8.45
2023-04-07T16:24:10.138Z,8.10
2023-04-07T16:26:37.482Z,11.38
2023-04-07T16:29:04.695Z,4.63
2023-04-07T16:31:31.932Z,12.30
2023-04-07T16:33:59.366Z,7.97
2023-04-07T16:36:26.812Z,7.07
2023-04-07T16:38:54.098Z,6.22
2023-04-07T16:41:21.927Z,8.07
2023-04-07T16:43:49.208Z,10.85
2023-04-07T16:46:16.635Z,10.10
2023-04-07T16:48:43.946Z,8.18
2023-04-07T16:51:11.243Z,5.38
2023-04-07T16:53:38.524Z,7.47
2023-04-07T16:56:06.262Z,6.63
2023-04-07T16:58:33.551Z,19.13
2023-04-07T17:01:01.142Z,9.45
2023-04-07T17:03:28.679Z,13.50
2023-04-07T17:05:56.034Z,10.52
2023-04-07T17:08:23.230Z,13.38
2023-04-07T17:10:53.370Z,9.88
2023-04-07T17:13:20.727Z,11.15
2023-04-07T17:15:48.139Z,11.38
2023-04-07T17:18:15.594Z,11.98
2023-04-07T17:20:42.809Z,16.92
2023-04-07T17:23:10.650Z,19.17
2023-04-07T17:25:41.283Z,17.65
2023-04-07T17:28:10.023Z,10.80
2023-04-07T17:30:44.296Z,16.40
2023-04-07T17:33:12.390Z,16.63
2023-04-07T17:35:39.567Z,15.85
2023-04-07T17:38:07.441Z,14.55
2023-04-07T17:40:35.088Z,10.18
2023-04-07T17:43:02.876Z,8.80
2023-04-07T17:45:30.112Z,17.75
2023-04-07T17:47:57.714Z,16.67
2023-04-07T17:50:24.849Z,14.90
2023-04-07T17:52:52.737Z,14.63
2023-04-07T17:55:20.269Z,14.77
2023-04-07T17:57:52.058Z,12.48
2023-04-07T18:00:19.565Z,15.77
2023-04-07T18:02:47.081Z,18.30
2023-04-07T18:05:17.585Z,21.58
2023-04-07T18:07:44.795Z,18.13
2023-04-07T18:10:12.623Z,12.32
2023-04-07T18:12:40.952Z,14.20
2023-04-07T18:15:09.599Z,18.17
2023-04-07T18:17:37.485Z,13.70
2023-04-07T18:20:07.895Z,15.02
2023-04-07T18:22:35.320Z,28.48
2023-04-07T18:25:03.096Z,14.48
2023-04-07T18:27:30.772Z,16.55
2023-04-07T18:29:58.167Z,12.75
2023-04-07T18:32:25.747Z,12.45
2023-04-07T18:34:53.883Z,10.65
2023-04-07T18:37:22.300Z,16.58
2023-04-07T18:39:49.614Z,11.88
2023-04-07T18:42:17.195Z,12.10
2023-04-07T18:44:44.389Z,11.75
2023-04-07T18:47:11.540Z,14.18
2023-04-07T18:49:39.777Z,18.10
2023-04-07T18:52:07.618Z,15.23
2023-04-07T18:54:35.122Z,10.75
2023-04-07T18:57:04.163Z,8.32
2023-04-07T18:59:31.656Z,9.15
2023-04-07T19:01:59.082Z,8.93
2023-04-07T19:04:26.395Z,9.45
2023-04-07T19:06:54.535Z,8.23
2023-04-07T19:09:22.132Z,12.70
2023-04-07T19:11:49.458Z,11.00
2023-04-07T19:14:16.874Z,10.73
2023-04-07T19:16:44.679Z,9.73
2023-04-07T19:19:13.301Z,8.07
2023-04-07T19:21:41.444Z,9.65
2023-04-07T19:24:08.869Z,10.07
2023-04-07T19:26:36.225Z,9.65
2023-04-07T19:29:03.687Z,7.75
2023-04-07T19:31:31.632Z,9.68
2023-04-07T19:33:59.285Z,11.18
2023-04-07T19:36:28.212Z,12.00
2023-04-07T19:38:55.582Z,7.55
2023-04-07T19:41:23.081Z,12.20
2023-04-07T19:43:50.584Z,11.48
2023-04-07T19:46:17.998Z,13.48
2023-04-07T19:48:45.379Z,9.43
2023-04-07T19:51:12.890Z,7.28
2023-04-07T19:53:40.244Z,12.90
2023-04-07T19:56:07.908Z,14.80
2023-04-07T19:58:35.063Z,13.60
2023-04-07T20:01:04.644Z,12.07
2023-04-07T20:03:32.192Z,17.73
2023-04-07T20:05:59.858Z,9.80
2023-04-07T20:08:27.104Z,16.80
2023-04-07T20:10:54.409Z,12.55
2023-04-07T20:13:21.802Z,18.42
2023-04-07T20:15:50.036Z,10.23
2023-04-07T20:18:18.723Z,12.30
2023-04-07T20:20:48.986Z,10.90
2023-04-07T20:23:19.478Z,10.10
2023-04-07T20:25:47.163Z,14.82
2023-04-07T20:28:15.412Z,10.02
2023-04-07T20:30:43.232Z,16.30
2023-04-07T20:33:10.878Z,14.63
2023-04-07T20:35:38.049Z,13.63
2023-04-07T20:38:05.353Z,14.52
2023-04-07T20:40:37.077Z,13.25
2023-04-07T20:43:05.685Z,10.90
2023-04-07T20:45:34.180Z,11.75
2023-04-07T20:48:01.647Z,8.98
2023-04-07T20:50:29.270Z,9.98
2023-04-07T20:52:56.497Z,9.45
2023-04-07T20:55:24.166Z,16.85
2023-04-07T20:57:52.069Z,7.88
2023-04-07T21:00:19.511Z,10.60
2023-04-07T21:02:48.702Z,11.48
2023-04-07T21:05:16.319Z,11.07
2023-04-07T21:07:43.524Z,12.35
2023-04-07T21:10:11.266Z,10.75
2023-04-07T21:12:38.671Z,13.18
2023-04-07T21:15:06.833Z,7.72
2023-04-07T21:17:34.134Z,7.47
2023-04-07T21:20:01.446Z,15.55
2023-04-07T21:22:31.039Z,13.48
2023-04-07T21:24:58.284Z,14.98
2023-04-07T21:27:25.780Z,8.75
2023-04-07T21:29:53.017Z,11.73
2023-04-07T21:32:20.873Z,9.05
2023-04-07T21:34:51.515Z,9.85
2023-04-07T21:37:18.862Z,10.90
2023-04-07T21:39:46.698Z,17.90
2023-04-07T21:42:14.156Z,10.32
2023-04-07T21:44:41.271Z,10.98
2023-04-07T21:47:08.519Z,11.30
2023-04-07T21:49:38.670Z,16.00
2023-04-07T21:52:07.235Z,8.70
2023-04-07T21:54:34.323Z,13.88
2023-04-07T21:57:01.672Z,8.85
2023-04-07T21:59:28.916Z,19.08
2023-04-07T22:01:56.431Z,9.18
2023-04-07T22:04:23.741Z,14.20
2023-04-07T22:06:50.996Z,9.23
2023-04-07T22:09:18.300Z,7.40
2023-04-07T22:11:45.448Z,6.30
2023-04-07T22:14:12.661Z,9.43
2023-04-07T22:16:40.072Z,8.55
2023-04-07T22:19:07.394Z,7.00
2023-04-07T22:21:34.694Z,4.82
2023-04-07T22:24:01.920Z,7.47
2023-04-07T22:26:29.289Z,7.38
2023-04-07T22:28:56.515Z,7.22
2023-04-07T22:31:23.769Z,7.18
2023-04-07T22:33:50.841Z,10.20
2023-04-07T22:36:18.202Z,6.72
2023-04-07T22:38:45.839Z,8.88
2023-04-07T22:41:13.043Z,12.75
2023-04-07T22:43:40.476Z,7.13
2023-04-07T22:46:07.883Z,8.05
2023-04-07T22:48:35.022Z,7.38
2023-04-07T22:51:02.476Z,15.85
2023-04-07T22:53:29.739Z,10.30
2023-04-07T22:55:56.826Z,11.52
2023-04-07T22:58:23.979Z,8.90
2023-04-07T23:00:51.410Z,6.80
2023-04-07T23:03:18.691Z,8.30
2023-04-07T23:05:46.145Z,7.22
2023-04-07T23:08:13.413Z,8.23
2023-04-07T23:10:40.598Z,8.40
2023-04-07T23:13:07.805Z,10.50
2023-04-07T23:15:36.133Z,6.28
2023-04-07T23:18:03.427Z,9.60
2023-04-07T23:20:30.736Z,6.00
2023-04-07T23:22:58.001Z,7.80
2023-04-07T23:25:25.959Z,6.95
2023-04-07T23:27:53.163Z,7.72
2023-04-07T23:30:20.668Z,16.20
2023-04-07T23:32:47.923Z,4.88
2023-04-07T23:35:14.978Z,6.05
2023-04-07T23:37:42.463Z,8.00
2023-04-07T23:40:10.666Z,12.65
2023-04-07T23:42:38.011Z,8.65
2023-04-07T23:45:05.760Z,7.90
2023-04-07T23:47:33.186Z,7.72
2023-04-07T23:50:00.715Z,5.53
2023-04-07T23:52:28.241Z,7.97
2023-04-07T23:54:55.416Z,7.45
2023-04-07T23:57:22.775Z,7.70
2023-04-07T23:59:49.967Z,9.20
